createdAt,value
2022-08-07T00:00:26.331Z,40.43
2022-08-07T00:02:53.977Z,40.77
2022-08-07T00:05:23.709Z,41.44
2022-08-07T00:07:59.929Z,41.67
2022-08-07T00:10:31.005Z,42.17
2022-08-07T00:13:09.852Z,42.37
2022-08-07T00:15:51.646Z,42.77
2022-08-07T00:18:25.317Z,42.80
2022-08-07T00:20:55.209Z,43.02
2022-08-07T00:23:24.407Z,43.17
2022-08-07T00:25:58.861Z,43.24
2022-08-07T00:28:31.783Z,43.72
2022-08-07T00:31:16.702Z,43.34
2022-08-07T00:33:47.724Z,43.35
2022-08-07T00:36:15.241Z,43.31
2022-08-07T00:38:44.716Z,43.59
2022-08-07T00:41:14.754Z,43.66
2022-08-07T00:44:00.978Z,43.75
2022-08-07T00:46:33.213Z,43.60
2022-08-07T00:49:03.132Z,43.52
2022-08-07T00:51:57.211Z,43.80
2022-08-07T00:54:19.886Z,43.71
2022-08-07T00:56:49.581Z,43.85
2022-08-07T00:59:20.241Z,43.92
2022-08-07T01:02:02.251Z,43.82
2022-08-07T01:04:30.218Z,43.91
2022-08-07T01:06:58.148Z,43.97
2022-08-07T01:09:51.230Z,44.16
2022-08-07T01:12:29.720Z,44.13
2022-08-07T01:15:01.118Z,44.23
2022-08-07T01:17:30.535Z,44.13
2022-08-07T01:20:04.906Z,44.33
2022-08-07T01:22:34.669Z,44.30
2022-08-07T01:25:05.257Z,44.48
2022-08-07T01:27:51.660Z,44.50
2022-08-07T01:30:19.476Z,44.67
2022-08-07T01:32:47.478Z,44.75
2022-08-07T01:35:17.299Z,44.87
2022-08-07T01:37:47.807Z,45.06
2022-08-07T01:40:21.414Z,45.27
2022-08-07T01:43:01.338Z,45.09
2022-08-07T01:45:37.127Z,44.97
2022-08-07T01:48:18.319Z,45.20
2022-08-07T01:51:24.444Z,45.25
2022-08-07T01:54:08.879Z,45.52
2022-08-07T01:56:55.867Z,45.56
2022-08-07T01:59:48.341Z,45.71
2022-08-07T02:02:32.558Z,45.48
2022-08-07T02:05:06.519Z,45.74
2022-08-07T02:07:50.036Z,45.69
2022-08-07T02:10:28.517Z,46.01
2022-08-07T02:13:00.364Z,46.21
2022-08-07T02:15:39.390Z,46.32
2022-08-07T02:18:12.747Z,46.19
2022-08-07T02:20:42.902Z,46.14
2022-08-07T02:23:19.992Z,46.25
2022-08-07T02:26:31.765Z,46.45
2022-08-07T02:28:44.617Z,46.63
2022-08-07T02:31:29.087Z,46.85
2022-08-07T02:34:02.912Z,46.96
2022-08-07T02:36:41.392Z,47.01
2022-08-07T02:39:16.187Z,46.76
2022-08-07T02:41:54.425Z,46.72
2022-08-07T02:44:27.765Z,46.80
2022-08-07T02:47:07.393Z,46.49
2022-08-07T02:49:57.852Z,46.41
2022-08-07T02:52:35.232Z,46.32
2022-08-07T02:55:28.314Z,46.36
2022-08-07T02:58:16.590Z,46.25
2022-08-07T03:00:52.854Z,46.35
2022-08-07T03:03:23.399Z,46.21
2022-08-07T03:05:56.337Z,46.47
2022-08-07T03:08:26.777Z,46.59
2022-08-07T03:11:00.341Z,46.52
2022-08-07T03:13:39.016Z,46.59
2022-08-07T03:16:23.069Z,46.61
2022-08-07T03:18:59.488Z,46.30
2022-08-07T03:21:33.118Z,45.97
2022-08-07T03:24:21.160Z,45.67
2022-08-07T03:26:59.014Z,45.63
2022-08-07T03:29:49.611Z,45.53
2022-08-07T03:32:34.167Z,45.55
2022-08-07T03:35:17.512Z,45.57
2022-08-07T03:37:55.078Z,45.77
2022-08-07T03:40:31.023Z,45.57
2022-08-07T03:43:14.359Z,45.77
2022-08-07T03:45:51.415Z,45.48
2022-08-07T03:48:25.857Z,45.76
2022-08-07T03:50:57.791Z,45.61
2022-08-07T03:54:02.085Z,45.58
2022-08-07T03:56:33.402Z,45.68
2022-08-07T03:59:10.075Z,45.38
2022-08-07T04:01:46.863Z,45.23
2022-08-07T04:04:17.960Z,45.29
2022-08-07T04:06:51.002Z,45.27
2022-08-07T04:09:23.229Z,44.97
2022-08-07T04:12:21.252Z,45.01
2022-08-07T04:14:49.122Z,44.92
2022-08-07T04:17:21.538Z,45.37
2022-08-07T04:19:56.385Z,45.24
2022-08-07T04:22:29.234Z,45.10
2022-08-07T04:25:08.869Z,45.00
2022-08-07T04:27:44.419Z,44.96
2022-08-07T04:30:21.660Z,44.89
2022-08-07T04:33:15.704Z,44.77
2022-08-07T04:35:50.225Z,44.55
2022-08-07T04:38:23.001Z,44.30
2022-08-07T04:40:56.542Z,44.04
2022-08-07T04:44:11.301Z,43.71
2022-08-07T04:47:04.918Z,43.70
2022-08-07T04:50:12.355Z,43.40
2022-08-07T04:53:00.291Z,43.33
2022-08-07T04:58:14.033Z,43.36
2022-08-07T05:00:11.565Z,42.65
2022-08-07T05:02:30.001Z,42.66
2022-08-07T05:05:53.314Z,42.35
2022-08-07T05:08:59.391Z,43.09
2022-08-07T05:11:58.610Z,42.58
2022-08-07T05:14:53.262Z,42.64
2022-08-07T05:17:51.929Z,42.79
2022-08-07T05:20:10.104Z,42.69
2022-08-07T05:22:41.785Z,42.45
2022-08-07T05:25:25.591Z,42.35
2022-08-07T05:28:02.553Z,42.14
2022-08-07T05:30:47.086Z,41.73
2022-08-07T05:33:17.977Z,41.57
2022-08-07T05:35:51.603Z,41.23
2022-08-07T05:38:58.347Z,41.12
2022-08-07T05:41:14.137Z,41.33
2022-08-07T05:44:07.780Z,41.36
2022-08-07T05:46:38.942Z,41.21
2022-08-07T05:49:11.791Z,40.79
2022-08-07T05:51:46.522Z,40.45
2022-08-07T05:54:31.260Z,40.27
2022-08-07T05:57:10.007Z,40.31
2022-08-07T05:59:57.615Z,39.65
2022-08-07T06:02:40.514Z,39.72
2022-08-07T06:05:15.911Z,39.24
2022-08-07T06:08:29.341Z,38.55
2022-08-07T06:10:39.469Z,37.79
2022-08-07T06:13:13.726Z,37.23
2022-08-07T06:15:46.029Z,36.62
2022-08-07T06:18:24.979Z,36.20
2022-08-07T06:22:14.500Z,35.85
2022-08-07T06:24:37.730Z,35.10
2022-08-07T06:26:34.128Z,34.12
2022-08-07T06:29:02.269Z,33.87
2022-08-07T06:31:46.774Z,33.87
2022-08-07T06:34:20.740Z,33.76
2022-08-07T06:36:51.867Z,32.78
2022-08-07T06:40:17.802Z,32.88
2022-08-07T06:42:32.842Z,33.05
2022-08-07T06:45:17.969Z,32.57
2022-08-07T06:47:58.399Z,32.36
2022-08-07T06:50:49.067Z,32.10
2022-08-07T06:54:11.719Z,32.32
2022-08-07T06:56:17.699Z,32.36
2022-08-07T07:00:12.467Z,31.97
2022-08-07T07:01:50.597Z,31.83
2022-08-07T07:04:32.784Z,32.11
2022-08-07T07:07:18.899Z,31.88
2022-08-07T07:09:50.966Z,32.42
2022-08-07T07:12:36.535Z,31.77
2022-08-07T07:15:23.516Z,32.36
2022-08-07T07:18:03.164Z,32.82
2022-08-07T07:20:42.441Z,32.39
2022-08-07T07:24:05.930Z,32.10
2022-08-07T07:26:31.543Z,31.94
2022-08-07T07:29:38.518Z,31.73
2022-08-07T07:31:52.570Z,31.78
2022-08-07T07:34:31.097Z,32.32
2022-08-07T07:37:14.817Z,32.10
2022-08-07T07:39:55.760Z,31.88
2022-08-07T07:42:33.187Z,32.17
2022-08-07T07:45:06.172Z,31.89
2022-08-07T07:47:52.129Z,32.23
2022-08-07T07:50:34.370Z,32.41
2022-08-07T07:53:20.535Z,32.16
2022-08-07T07:55:57.897Z,31.76
2022-08-07T07:58:37.027Z,31.83
2022-08-07T08:02:03.336Z,31.28
2022-08-07T08:04:10.666Z,31.50
2022-08-07T08:06:50.706Z,31.21
2022-08-07T08:09:22.929Z,31.19
2022-08-07T08:12:03.082Z,31.20
2022-08-07T08:14:36.002Z,30.72
2022-08-07T08:18:36.432Z,30.80
2022-08-07T08:20:19.365Z,30.91
2022-08-07T08:23:08.389Z,30.80
2022-08-07T08:26:04.607Z,31.60
2022-08-07T08:28:39.165Z,31.47
2022-08-07T08:31:16.284Z,31.45
2022-08-07T08:33:55.414Z,31.71
2022-08-07T08:36:30.405Z,30.93
2022-08-07T08:39:02.025Z,31.03
2022-08-07T08:41:58.455Z,30.63
2022-08-07T08:44:53.162Z,30.44
2022-08-07T08:47:52.210Z,29.98
2022-08-07T08:50:28.154Z,29.60
2022-08-07T08:53:02.794Z,29.71
2022-08-07T08:56:25.305Z,29.50
2022-08-07T08:59:13.781Z,29.39
2022-08-07T09:02:03.544Z,29.72
2022-08-07T09:05:02.271Z,29.36
2022-08-07T09:08:03.725Z,29.34
2022-08-07T09:11:01.134Z,29.23
2022-08-07T09:13:44.015Z,29.63
2022-08-07T09:16:30.478Z,29.53
2022-08-07T09:19:01.061Z,29.09
2022-08-07T09:22:22.572Z,28.75
2022-08-07T09:25:11.821Z,28.34
2022-08-07T09:28:05.405Z,28.45
2022-08-07T09:30:55.486Z,28.69
2022-08-07T09:33:57.334Z,28.82
2022-08-07T09:36:35.665Z,29.24
2022-08-07T09:39:55.124Z,29.00
2022-08-07T09:42:50.273Z,28.95
2022-08-07T09:47:50.259Z,28.64
2022-08-07T09:48:50.240Z,28.43
2022-08-07T09:52:15.551Z,28.76
2022-08-07T09:54:58.012Z,28.60
2022-08-07T09:58:03.907Z,28.44
2022-08-07T10:01:08.495Z,28.13
2022-08-07T10:04:06.452Z,28.41
2022-08-07T10:06:55.673Z,28.46
2022-08-07T10:10:01.062Z,28.28
2022-08-07T10:12:39.660Z,28.59
2022-08-07T10:16:00.316Z,28.15
2022-08-07T10:19:01.448Z,28.25
2022-08-07T10:22:12.261Z,27.98
2022-08-07T10:24:46.244Z,27.93
2022-08-07T10:27:17.988Z,28.01
2022-08-07T10:30:05.034Z,26.99
2022-08-07T10:33:13.126Z,27.19
2022-08-07T10:36:36.394Z,26.99
2022-08-07T10:39:41.661Z,26.86
2022-08-07T10:42:36.842Z,27.49
2022-08-07T10:45:57.255Z,27.38
2022-08-07T10:48:36.389Z,28.12
2022-08-07T10:51:16.842Z,28.00
2022-08-07T10:54:23.699Z,27.73
2022-08-07T10:57:15.485Z,28.44
2022-08-07T10:59:52.256Z,30.36
2022-08-07T11:02:34.280Z,30.88
2022-08-07T11:05:35.774Z,31.13
2022-08-07T11:08:46.077Z,31.52
2022-08-07T11:11:35.728Z,31.63
2022-08-07T11:14:43.988Z,32.15
2022-08-07T11:17:23.483Z,32.00
2022-08-07T11:20:49.577Z,32.40
2022-08-07T11:23:55.746Z,33.38
2022-08-07T11:26:38.472Z,32.99
2022-08-07T11:29:43.555Z,33.03
2022-08-07T11:32:25.368Z,32.50
2022-08-07T11:34:58.353Z,32.41
2022-08-07T11:37:57.351Z,32.86
2022-08-07T11:40:34.088Z,32.80
2022-08-07T11:43:54.556Z,33.13
2022-08-07T11:46:22.090Z,33.45
2022-08-07T11:49:51.104Z,32.96
2022-08-07T11:52:28.999Z,32.89
2022-08-07T11:55:01.282Z,33.08
2022-08-07T11:58:00.112Z,32.53
2022-08-07T12:00:37.410Z,32.24
2022-08-07T12:03:45.319Z,32.41
2022-08-07T12:06:37.512Z,32.02
2022-08-07T12:09:24.939Z,32.17
2022-08-07T12:12:12.216Z,32.83
2022-08-07T12:14:51.416Z,32.32
2022-08-07T12:17:33.832Z,31.88
2022-08-07T12:20:09.468Z,30.60
2022-08-07T12:23:09.192Z,29.43
2022-08-07T12:26:03.337Z,29.49
2022-08-07T12:29:04.220Z,29.46
2022-08-07T12:32:04.109Z,29.21
2022-08-07T12:34:39.316Z,28.87
2022-08-07T12:37:16.886Z,28.43
2022-08-07T12:39:54.153Z,27.05
2022-08-07T12:42:28.597Z,27.04
2022-08-07T12:45:14.553Z,26.56
2022-08-07T12:48:27.571Z,26.02
2022-08-07T12:51:12.908Z,25.26
2022-08-07T12:54:37.379Z,25.01
2022-08-07T12:57:04.548Z,24.63
2022-08-07T12:59:54.388Z,24.56
2022-08-07T13:02:34.267Z,24.27
2022-08-07T13:06:03.763Z,23.98
2022-08-07T13:08:56.346Z,23.83
2022-08-07T13:12:02.799Z,23.80
2022-08-07T13:14:37.562Z,22.63
2022-08-07T13:17:59.402Z,23.11
2022-08-07T13:20:51.188Z,24.39
2022-08-07T13:24:00.767Z,23.99
2022-08-07T13:26:41.825Z,23.34
2022-08-07T13:29:34.757Z,23.00
2022-08-07T13:32:32.352Z,22.90
2022-08-07T13:35:21.404Z,22.18
2022-08-07T13:38:26.705Z,22.02
2022-08-07T13:41:06.338Z,22.19
2022-08-07T13:43:42.744Z,22.19
2022-08-07T13:46:24.886Z,22.47
2022-08-07T13:49:00.354Z,22.94
2022-08-07T13:52:19.083Z,23.45
2022-08-07T13:54:28.167Z,23.54
2022-08-07T13:56:59.856Z,21.96
2022-08-07T13:59:33.851Z,21.45
2022-08-07T14:02:10.731Z,21.96
2022-08-07T14:04:47.473Z,21.97
2022-08-07T14:07:23.019Z,21.48
2022-08-07T14:10:17.623Z,20.65
2022-08-07T14:12:56.101Z,21.21
2022-08-07T14:15:31.877Z,20.96
2022-08-07T14:18:24.113Z,20.60
2022-08-07T14:21:07.874Z,19.94
2022-08-07T14:24:00.391Z,19.69
2022-08-07T14:26:51.280Z,19.83
2022-08-07T14:30:07.112Z,20.33
2022-08-07T14:32:30.589Z,21.80
2022-08-07T14:35:03.885Z,22.27
2022-08-07T14:37:38.858Z,23.13
2022-08-07T14:40:16.565Z,24.17
2022-08-07T14:43:58.340Z,24.87
2022-08-07T14:46:01.994Z,25.85
2022-08-07T14:48:34.896Z,26.03
2022-08-07T14:51:16.038Z,25.59
2022-08-07T14:54:08.799Z,25.24
2022-08-07T14:56:34.335Z,24.65
2022-08-07T14:59:13.985Z,23.68
2022-08-07T15:01:58.184Z,24.15
2022-08-07T15:04:26.406Z,24.43
2022-08-07T15:06:57.809Z,24.86
2022-08-07T15:09:59.119Z,24.18
2022-08-07T15:12:30.257Z,23.91
2022-08-07T15:18:14.250Z,24.16
2022-08-07T15:21:03.750Z,24.72
2022-08-07T15:27:04.052Z,25.96
2022-08-07T15:30:09.799Z,26.38
2022-08-07T15:32:39.754Z,26.20
2022-08-07T15:35:16.851Z,26.23
2022-08-07T15:38:17.812Z,26.23
2022-08-07T15:41:00.105Z,25.01
2022-08-07T15:43:52.866Z,24.60
2022-08-07T15:49:17.485Z,26.02
2022-08-07T15:54:34.125Z,26.90
2022-08-07T15:57:05.418Z,26.96
2022-08-07T15:59:40.112Z,27.14
2022-08-07T16:02:49.441Z,27.73
2022-08-07T16:05:20.028Z,27.70
2022-08-07T16:08:31.647Z,28.04
2022-08-07T16:10:52.338Z,26.43
2022-08-07T16:13:39.501Z,25.80
2022-08-07T16:16:47.570Z,25.03
2022-08-07T16:19:42.860Z,25.43
2022-08-07T16:22:36.410Z,24.38
2022-08-07T16:25:07.756Z,25.12
2022-08-07T16:27:41.699Z,24.85
2022-08-07T16:30:30.921Z,25.58
2022-08-07T16:34:03.183Z,26.69
2022-08-07T16:37:02.136Z,27.51
2022-08-07T16:40:04.819Z,29.39
2022-08-07T16:42:33.857Z,29.48
2022-08-07T16:45:14.182Z,29.95
2022-08-07T16:48:02.628Z,30.95
2022-08-07T16:51:20.882Z,31.10
2022-08-07T16:54:08.994Z,31.61
2022-08-07T16:56:39.672Z,31.63
2022-08-07T16:59:21.800Z,31.94
2022-08-07T17:02:14.111Z,31.35
2022-08-07T17:06:02.275Z,31.11
2022-08-07T17:08:00.138Z,31.78
2022-08-07T17:10:54.837Z,32.06
2022-08-07T17:14:18.340Z,32.37
2022-08-07T17:16:55.564Z,33.03
2022-08-07T17:20:02.735Z,32.86
2022-08-07T17:22:49.336Z,33.27
2022-08-07T17:25:47.792Z,33.90
2022-08-07T17:28:20.172Z,33.75
2022-08-07T17:30:59.207Z,34.54
2022-08-07T17:34:32.609Z,34.48
2022-08-07T17:36:26.021Z,34.21
2022-08-07T17:39:10.652Z,34.44
2022-08-07T17:42:03.844Z,34.58
2022-08-07T17:44:50.065Z,34.98
2022-08-07T17:47:41.829Z,34.87
2022-08-07T17:50:55.307Z,35.38
2022-08-07T17:54:01.334Z,36.17
2022-08-07T17:56:49.950Z,36.02
2022-08-07T17:59:36.669Z,36.38
2022-08-07T18:02:30.288Z,36.64
2022-08-07T18:05:27.171Z,36.56
2022-08-07T18:08:24.299Z,36.92
2022-08-07T18:12:06.182Z,36.88
2022-08-07T18:13:55.263Z,36.97
2022-08-07T18:16:58.156Z,37.71
2022-08-07T18:21:07.461Z,38.30
2022-08-07T18:22:48.878Z,38.23
2022-08-07T18:25:40.354Z,38.08
2022-08-07T18:28:35.681Z,38.19
2022-08-07T18:31:18.439Z,38.20
2022-08-07T18:34:35.893Z,38.58
2022-08-07T18:37:00.582Z,38.33
2022-08-07T18:40:07.246Z,38.99
2022-08-07T18:43:09.478Z,38.77
2022-08-07T18:46:25.049Z,38.42
2022-08-07T18:50:32.680Z,38.50
2022-08-07T18:52:37.946Z,39.02
2022-08-07T18:55:41.782Z,39.33
2022-08-07T18:58:27.958Z,39.54
2022-08-07T19:02:18.671Z,39.81
2022-08-07T19:04:25.069Z,39.85
2022-08-07T19:07:10.259Z,39.70
2022-08-07T19:09:59.127Z,39.75
2022-08-07T19:12:48.818Z,39.63
2022-08-07T19:16:05.678Z,39.38
2022-08-07T19:18:35.537Z,39.00
2022-08-07T19:21:56.123Z,39.00
2022-08-07T19:24:43.591Z,39.14
2022-08-07T19:28:58.534Z,38.91
2022-08-07T19:31:00.841Z,38.95
2022-08-07T19:33:12.725Z,38.42
2022-08-07T19:35:44.543Z,37.64
2022-08-07T19:38:16.683Z,38.13
2022-08-07T19:40:50.797Z,38.22
2022-08-07T19:43:48.913Z,38.61
2022-08-07T19:46:17.927Z,39.05
2022-08-07T19:48:56.136Z,38.86
2022-08-07T19:51:52.211Z,38.95
2022-08-07T19:54:33.412Z,39.55
2022-08-07T19:58:00.787Z,39.31
2022-08-07T20:00:02.237Z,39.14
2022-08-07T20:02:39.231Z,40.59
2022-08-07T20:05:12.900Z,41.83
2022-08-07T20:07:47.089Z,42.44
2022-08-07T20:10:35.583Z,43.27
2022-08-07T20:13:22.646Z,44.41
2022-08-07T20:15:57.637Z,44.77
2022-08-07T20:18:33.585Z,44.65
2022-08-07T20:21:21.221Z,44.99
2022-08-07T20:23:58.019Z,44.11
2022-08-07T20:26:44.927Z,43.83
2022-08-07T20:29:47.949Z,43.46
2022-08-07T20:32:11.626Z,43.36
2022-08-07T20:34:58.622Z,43.08
2022-08-07T20:37:46.843Z,43.82
2022-08-07T20:40:32.205Z,44.83
2022-08-07T20:43:02.634Z,46.13
2022-08-07T20:46:29.714Z,47.22
2022-08-07T20:48:29.682Z,49.00
2022-08-07T20:51:00.847Z,49.32
2022-08-07T20:54:03.913Z,51.01
2022-08-07T20:56:30.698Z,52.25
2022-08-07T20:59:05.410Z,52.71
2022-08-07T21:01:45.706Z,52.86
2022-08-07T21:04:28.046Z,52.62
2022-08-07T21:07:03.894Z,52.92
2022-08-07T21:09:51.725Z,52.93
2022-08-07T21:12:26.021Z,52.38
2022-08-07T21:14:58.763Z,52.10
2022-08-07T21:18:06.624Z,51.43
2022-08-07T21:20:29.395Z,51.38
2022-08-07T21:23:07.664Z,51.26
2022-08-07T21:25:56.932Z,51.48
2022-08-07T21:28:51.194Z,51.63
2022-08-07T21:32:47.504Z,51.61
2022-08-07T21:34:48.873Z,52.00
2022-08-07T21:37:58.692Z,52.42
2022-08-07T21:40:38.211Z,52.30
2022-08-07T21:43:11.064Z,51.99
2022-08-07T21:46:24.443Z,51.99
2022-08-07T21:49:04.760Z,52.14
2022-08-07T21:52:11.703Z,51.81
2022-08-07T21:55:00.299Z,51.64
2022-08-07T21:57:51.790Z,51.94
2022-08-07T22:00:25.614Z,51.66
2022-08-07T22:03:30.990Z,51.51
2022-08-07T22:06:06.278Z,51.28
2022-08-07T22:08:41.241Z,51.21
2022-08-07T22:11:21.120Z,51.04
2022-08-07T22:13:57.379Z,51.08
2022-08-07T22:16:46.882Z,51.46
2022-08-07T22:19:23.802Z,51.35
2022-08-07T22:22:27.538Z,51.94
2022-08-07T22:25:03.459Z,51.84
2022-08-07T22:28:30.933Z,51.90
2022-08-07T22:31:58.907Z,52.06
2022-08-07T22:34:53.384Z,52.07
2022-08-07T22:37:27.500Z,51.82
2022-08-07T22:40:33.684Z,51.94
2022-08-07T22:43:10.775Z,51.98
2022-08-07T22:46:41.024Z,52.01
2022-08-07T22:49:16.191Z,52.71
2022-08-07T22:51:49.161Z,52.58
2022-08-07T22:54:19.987Z,52.51
2022-08-07T22:56:58.008Z,52.36
2022-08-07T22:59:49.802Z,52.68
2022-08-07T23:02:37.690Z,52.58
2022-08-07T23:06:09.905Z,52.67
2022-08-07T23:08:34.338Z,52.95
2022-08-07T23:11:16.549Z,52.79
2022-08-07T23:14:16.830Z,53.06
2022-08-07T23:17:19.850Z,53.22
2022-08-07T23:20:40.487Z,53.15
2022-08-07T23:24:05.261Z,53.38
2022-08-07T23:26:30.734Z,53.15
2022-08-07T23:30:36.265Z,53.23
2022-08-07T23:34:18.929Z,53.02
2022-08-07T23:35:25.783Z,53.55
2022-08-07T23:38:36.518Z,54.50
2022-08-07T23:41:11.469Z,54.16
2022-08-07T23:44:18.156Z,54.62
2022-08-07T23:47:07.163Z,54.29
2022-08-07T23:50:16.436Z,55.54
2022-08-07T23:53:06.191Z,54.91
2022-08-07T23:55:55.364Z,54.99
2022-08-07T23:58:32.541Z,54.99
